createdAt,value
2022-10-07T00:00:46.946Z,100183.88
2022-10-07T00:06:02.915Z,100185.34
2022-10-07T00:11:13.602Z,100180.44
2022-10-07T00:16:21.076Z,100171.69
2022-10-07T00:21:28.666Z,100160.00
2022-10-07T00:26:37.787Z,100162.16
2022-10-07T00:31:42.621Z,100160.34
2022-10-07T00:36:50.474Z,100154.03
2022-10-07T00:41:57.930Z,100150.03
2022-10-07T00:47:05.859Z,100151.00
2022-10-07T00:52:11.235Z,100151.06
2022-10-07T00:57:18.845Z,100146.31
2022-10-07T01:02:24.901Z,100138.50
2022-10-07T01:07:31.079Z,100126.47
2022-10-07T01:12:49.872Z,100129.84
2022-10-07T01:18:02.048Z,100120.00
2022-10-07T01:23:21.874Z,100116.81
2022-10-07T01:28:34.972Z,100109.31
2022-10-07T01:33:44.418Z,100106.09
2022-10-07T01:38:54.060Z,100104.00
2022-10-07T01:44:03.070Z,100087.69
2022-10-07T01:49:08.281Z,100087.97
2022-10-07T01:54:31.310Z,100076.78
2022-10-07T01:59:56.279Z,100070.94
2022-10-07T02:05:11.470Z,100056.88
2022-10-07T02:10:24.306Z,100053.81
2022-10-07T02:15:39.690Z,100049.31
2022-10-07T02:20:48.792Z,100045.19
2022-10-07T02:25:56.616Z,100036.81
2022-10-07T02:31:07.126Z,100035.59
2022-10-07T02:36:16.881Z,100034.44
2022-10-07T02:41:35.443Z,100031.75
2022-10-07T02:46:53.119Z,100024.75
2022-10-07T02:52:02.230Z,100026.00
2022-10-07T02:57:10.840Z,100019.88
2022-10-07T03:02:24.350Z,100015.34
2022-10-07T03:07:31.802Z,100002.41
2022-10-07T03:12:37.857Z,100004.41
2022-10-07T03:17:46.068Z,100002.56
2022-10-07T03:22:51.513Z,100006.47
2022-10-07T03:27:57.920Z,100001.78
2022-10-07T03:33:05.633Z,99999.91
2022-10-07T03:38:11.160Z,99995.03
2022-10-07T03:43:19.604Z,99990.81
2022-10-07T03:48:27.782Z,99987.25
2022-10-07T03:53:33.613Z,99975.69
2022-10-07T03:58:42.221Z,99963.84
2022-10-07T04:03:59.857Z,99968.94
2022-10-07T04:09:06.500Z,99967.53
2022-10-07T04:14:14.737Z,99950.25
2022-10-07T04:19:22.619Z,99955.72
2022-10-07T04:24:27.749Z,99951.31
2022-10-07T04:29:39.160Z,99949.41
2022-10-07T04:34:47.844Z,99946.31
2022-10-07T04:40:00.655Z,99942.09
2022-10-07T04:45:11.656Z,99939.19
2022-10-07T04:50:20.383Z,99937.34
2022-10-07T04:55:26.699Z,99927.72
2022-10-07T05:00:31.978Z,99931.31
2022-10-07T05:05:40.632Z,99932.53
2022-10-07T05:10:46.419Z,99925.13
2022-10-07T05:15:56.418Z,99924.84
2022-10-07T05:21:07.701Z,99921.31
2022-10-07T05:26:16.849Z,99899.31
2022-10-07T05:31:27.938Z,99911.97
2022-10-07T05:36:41.959Z,99913.63
2022-10-07T05:41:49.037Z,99892.56
2022-10-07T05:47:02.950Z,99892.16
2022-10-07T05:52:12.461Z,99889.75
2022-10-07T05:57:20.090Z,99889.69
2022-10-07T06:02:26.321Z,99892.28
2022-10-07T06:07:34.148Z,99897.94
2022-10-07T06:12:53.701Z,99880.59
2022-10-07T06:17:58.668Z,99881.19
2022-10-07T06:23:07.401Z,99893.59
2022-10-07T06:28:14.445Z,99879.59
2022-10-07T06:33:20.502Z,99877.38
2022-10-07T06:38:29.300Z,99872.34
2022-10-07T06:43:35.954Z,99870.75
2022-10-07T06:48:46.159Z,99873.78
2022-10-07T06:54:00.452Z,99869.00
2022-10-07T06:59:05.811Z,99861.63
2022-10-07T07:04:22.121Z,99869.19
2022-10-07T07:09:37.806Z,99861.97
2022-10-07T07:14:45.372Z,99840.78
2022-10-07T07:19:55.615Z,99842.13
2022-10-07T07:25:05.991Z,99837.84
2022-10-07T07:30:13.419Z,99837.09
2022-10-07T07:35:19.597Z,99825.34
2022-10-07T07:40:27.156Z,99831.34
2022-10-07T07:45:33.287Z,99816.53
2022-10-07T07:50:40.398Z,99817.59
2022-10-07T07:55:58.306Z,99813.72
2022-10-07T08:01:07.278Z,99815.50
2022-10-07T08:06:14.709Z,99806.22
2022-10-07T08:11:24.252Z,99802.03
2022-10-07T08:16:32.655Z,99798.00
2022-10-07T08:21:39.579Z,99792.69
2022-10-07T08:26:50.701Z,99791.25
2022-10-07T08:31:56.258Z,99788.34
2022-10-07T08:37:01.270Z,99789.75
2022-10-07T08:42:16.090Z,99778.94
2022-10-07T08:47:30.515Z,99782.47
2022-10-07T08:52:45.765Z,99776.38
2022-10-07T08:58:19.792Z,99761.69
2022-10-07T09:03:37.816Z,99765.09
2022-10-07T09:08:46.820Z,99757.00
2022-10-07T09:14:02.685Z,99761.75
2022-10-07T09:19:18.769Z,99745.53
2022-10-07T09:24:28.337Z,99746.28
2022-10-07T09:29:35.716Z,99738.13
2022-10-07T09:34:40.714Z,99733.69
2022-10-07T09:39:47.830Z,99717.50
2022-10-07T09:44:57.843Z,99719.63
2022-10-07T09:50:02.659Z,99708.03
2022-10-07T09:55:32.601Z,99706.91
2022-10-07T10:00:47.904Z,99711.44
2022-10-07T10:05:59.503Z,99695.69
2022-10-07T10:11:06.429Z,99697.44
2022-10-07T10:16:40.715Z,99679.78
2022-10-07T10:21:46.302Z,99679.22
2022-10-07T10:26:58.746Z,99675.63
2022-10-07T10:32:31.072Z,99660.13
2022-10-07T10:37:58.303Z,99654.31
2022-10-07T10:43:20.442Z,99646.03
2022-10-07T10:48:36.241Z,99627.44
2022-10-07T10:53:51.507Z,99624.38
2022-10-07T10:59:11.584Z,99609.41
2022-10-07T11:04:38.500Z,99608.69
2022-10-07T11:09:47.850Z,99599.97
2022-10-07T11:14:59.904Z,99584.50
2022-10-07T11:20:21.575Z,99581.78
2022-10-07T11:25:37.103Z,99565.91
2022-10-07T11:30:50.613Z,99558.88
2022-10-07T11:36:02.419Z,99553.09
2022-10-07T11:41:13.457Z,99546.16
2022-10-07T11:46:23.787Z,99535.91
2022-10-07T11:51:35.448Z,99525.19
2022-10-07T11:56:49.278Z,99516.53
2022-10-07T12:01:55.330Z,99514.44
2022-10-07T12:07:31.573Z,99502.91
2022-10-07T12:12:55.571Z,99492.06
2022-10-07T12:18:28.774Z,99485.19
2022-10-07T12:23:47.503Z,99478.09
2022-10-07T12:29:02.422Z,99467.97
2022-10-07T12:34:13.491Z,99462.91
2022-10-07T12:39:37.357Z,99449.72
2022-10-07T12:44:51.375Z,99446.47
2022-10-07T12:49:59.391Z,99453.56
2022-10-07T12:55:11.101Z,99439.16
2022-10-07T13:00:20.556Z,99430.06
2022-10-07T13:05:55.427Z,99422.88
2022-10-07T13:11:34.039Z,99414.69
2022-10-07T13:16:49.308Z,99408.13
2022-10-07T13:22:02.409Z,99402.53
2022-10-07T13:27:10.973Z,99391.31
2022-10-07T13:32:21.043Z,99389.97
2022-10-07T13:37:32.232Z,99380.31
2022-10-07T13:42:37.359Z,99381.94
2022-10-07T13:47:48.431Z,99355.41
2022-10-07T13:52:56.282Z,99362.31
2022-10-07T13:58:03.303Z,99359.09
2022-10-07T14:03:19.381Z,99345.88
2022-10-07T14:08:28.157Z,99334.22
2022-10-07T14:13:34.741Z,99339.63
2022-10-07T14:18:46.955Z,99325.41
2022-10-07T14:23:52.395Z,99314.13
2022-10-07T14:28:57.108Z,99314.03
2022-10-07T14:34:27.549Z,99305.28
2022-10-07T14:39:38.344Z,99298.81
2022-10-07T14:44:44.340Z,99293.84
2022-10-07T14:49:52.850Z,99287.75
2022-10-07T14:54:58.583Z,99290.66
2022-10-07T15:00:04.356Z,99285.53
2022-10-07T15:05:14.199Z,99273.16
2022-10-07T15:10:26.297Z,99269.69
2022-10-07T15:15:31.133Z,99262.56
2022-10-07T15:20:38.916Z,99258.59
2022-10-07T15:25:44.146Z,99239.69
2022-10-07T15:30:49.793Z,99244.53
2022-10-07T15:35:58.747Z,99236.00
2022-10-07T15:41:04.499Z,99227.66
2022-10-07T15:46:09.497Z,99227.06
2022-10-07T15:51:17.618Z,99222.00
2022-10-07T15:56:25.584Z,99228.31
2022-10-07T16:01:32.190Z,99222.94
2022-10-07T16:06:39.871Z,99222.25
2022-10-07T16:11:45.821Z,99225.28
2022-10-07T16:16:50.875Z,99234.34
2022-10-07T16:21:58.675Z,99226.16
2022-10-07T16:27:03.523Z,99233.84
2022-10-07T16:32:10.945Z,99233.06
2022-10-07T16:37:19.266Z,99219.63
2022-10-07T16:42:24.301Z,99219.47
2022-10-07T16:47:29.134Z,99224.44
2022-10-07T16:52:36.910Z,99221.88
2022-10-07T16:57:41.731Z,99230.47
2022-10-07T17:02:46.585Z,99227.00
2022-10-07T17:07:54.220Z,99234.84
2022-10-07T17:13:00.727Z,99237.34
2022-10-07T17:18:05.622Z,99236.25
2022-10-07T17:23:13.083Z,99233.19
2022-10-07T17:28:18.393Z,99226.78
2022-10-07T17:33:23.450Z,99228.44
2022-10-07T17:38:35.735Z,99227.78
2022-10-07T17:43:42.163Z,99221.19
2022-10-07T17:48:48.565Z,99212.84
2022-10-07T17:53:56.495Z,99219.22
2022-10-07T17:59:02.334Z,99210.72
2022-10-07T18:04:09.149Z,99218.50
2022-10-07T18:09:22.209Z,99214.50
2022-10-07T18:14:39.453Z,99207.06
2022-10-07T18:19:45.280Z,99193.41
2022-10-07T18:24:57.229Z,99199.13
2022-10-07T18:30:02.299Z,99188.47
2022-10-07T18:35:08.111Z,99195.41
2022-10-07T18:40:20.678Z,99197.59
2022-10-07T18:45:25.681Z,99185.09
2022-10-07T18:50:33.562Z,99178.34
2022-10-07T18:55:44.603Z,99165.22
2022-10-07T19:00:49.601Z,99158.44
2022-10-07T19:05:54.543Z,99161.63
2022-10-07T19:11:05.684Z,99165.88
2022-10-07T19:16:10.953Z,99157.72
2022-10-07T19:21:18.420Z,99162.53
2022-10-07T19:26:29.937Z,99156.56
2022-10-07T19:31:40.298Z,99158.94
2022-10-07T19:36:47.227Z,99160.81
2022-10-07T19:41:59.231Z,99160.13
2022-10-07T19:47:04.271Z,99160.06
2022-10-07T19:52:09.290Z,99152.69
2022-10-07T19:57:16.752Z,99154.28
2022-10-07T20:02:21.730Z,99153.19
2022-10-07T20:07:26.768Z,99152.38
2022-10-07T20:12:34.353Z,99145.97
2022-10-07T20:17:39.565Z,99132.88
2022-10-07T20:22:49.265Z,99143.25
2022-10-07T20:27:56.930Z,99139.28
2022-10-07T20:33:02.603Z,99132.78
2022-10-07T20:38:07.627Z,99130.22
2022-10-07T20:43:19.989Z,99138.56
2022-10-07T20:48:25.304Z,99125.25
2022-10-07T20:53:30.111Z,99108.72
2022-10-07T20:58:37.609Z,99112.53
2022-10-07T21:03:43.381Z,99110.91
2022-10-07T21:08:48.511Z,99098.22
2022-10-07T21:13:56.192Z,99097.44
2022-10-07T21:19:01.964Z,99098.31
2022-10-07T21:24:07.357Z,99094.19
2022-10-07T21:29:16.174Z,99089.13
2022-10-07T21:34:21.246Z,99090.03
2022-10-07T21:39:26.661Z,99078.47
2022-10-07T21:44:35.843Z,99074.72
2022-10-07T21:49:41.220Z,99072.00
2022-10-07T21:54:46.049Z,99078.63
2022-10-07T21:59:53.957Z,99064.41
2022-10-07T22:04:59.023Z,99053.16
2022-10-07T22:10:04.208Z,99047.50
2022-10-07T22:15:12.860Z,99050.47
2022-10-07T22:20:17.953Z,99045.38
2022-10-07T22:25:23.145Z,99043.56
2022-10-07T22:30:31.046Z,99036.97
2022-10-07T22:35:36.339Z,99029.50
2022-10-07T22:40:41.555Z,99026.28
2022-10-07T22:45:57.816Z,99008.41
2022-10-07T22:51:07.492Z,99005.13
2022-10-07T22:56:14.873Z,99014.53
2022-10-07T23:01:23.680Z,99008.28
2022-10-07T23:06:28.417Z,99000.59
2022-10-07T23:11:33.821Z,98996.66
2022-10-07T23:16:42.011Z,98998.41
2022-10-07T23:21:47.837Z,98987.09
2022-10-07T23:26:52.657Z,98982.84
2022-10-07T23:32:00.032Z,98987.63
2022-10-07T23:37:05.299Z,98986.97
2022-10-07T23:42:10.344Z,98981.44
2022-10-07T23:47:18.232Z,98978.97
2022-10-07T23:52:23.191Z,98966.41
2022-10-07T23:57:28.070Z,98971.94
